Time;durP1;ratioP1;P1;durP2;ratioP2;P2;SDS_P1;SDS_P2;PMS_P1;PMS_P2;Temp;Humidity;BMP_temperature;BMP_pressure;BME280_temperature;BME280_humidity;BME280_pressure;Samples;Min_cycle;Max_cycle;Signal;HPM_P1;HPM_P2
2021/06/08 00:00:49;;;;;;;6.25;4.32;;;;;;;;;;5134067;27;20234;-72
2021/06/08 00:03:15;;;;;;;5.35;4.38;;;;;;;;;;5133990;27;20678;-72
2021/06/08 00:05:41;;;;;;;4.22;3.83;;;;;;;;;;5133398;27;20209;-72
2021/06/08 00:08:08;;;;;;;5.53;4.28;;;;;;;;;;5134127;27;20210;-72
2021/06/08 00:10:34;;;;;;;5.20;4.05;;;;;;;;;;5133806;27;20310;-72
2021/06/08 00:13:01;;;;;;;7.05;3.97;;;;;;;;;;5133461;27;20227;-72
2021/06/08 00:15:27;;;;;;;4.72;3.92;;;;;;;;;;5132588;27;20246;-72
2021/06/08 00:17:53;;;;;;;4.50;3.83;;;;;;;;;;5134132;27;20199;-72
2021/06/08 00:20:20;;;;;;;5.70;4.00;;;;;;;;;;5133826;27;20227;-72
2021/06/08 00:22:46;;;;;;;5.97;4.43;;;;;;;;;;5133763;27;20203;-72
2021/06/08 00:25:13;;;;;;;5.60;4.03;;;;;;;;;;5131809;27;20231;-72
2021/06/08 00:27:39;;;;;;;7.40;4.10;;;;;;;;;;5133331;27;20237;-71
2021/06/08 00:30:06;;;;;;;4.75;4.07;;;;;;;;;;5132534;27;20235;-72
2021/06/08 00:32:33;;;;;;;3.95;3.47;;;;;;;;;;5133631;27;20290;-72
2021/06/08 00:34:59;;;;;;;6.55;4.68;;;;;;;;;;5132980;27;20293;-72
2021/06/08 00:37:25;;;;;;;6.75;4.80;;;;;;;;;;5133538;27;20208;-72
2021/06/08 00:39:52;;;;;;;6.28;4.13;;;;;;;;;;5133433;27;20254;-72
2021/06/08 00:42:28;;;;;;;5.80;4.40;;;;;;;;;;5118932;27;20325;-72
2021/06/08 00:44:55;;;;;;;6.60;5.20;;;;;;;;;;5103407;28;20283;-72
2021/06/08 00:47:21;;;;;;;8.45;4.57;;;;;;;;;;5092564;28;20207;-72
2021/06/08 00:49:47;;;;;;;6.55;4.15;;;;;;;;;;5098294;27;20251;-72
2021/06/08 00:52:14;;;;;;;7.05;4.68;;;;;;;;;;5133279;27;20286;-72
2021/06/08 00:54:41;;;;;;;6.25;4.28;;;;;;;;;;5132309;27;20199;-72
2021/06/08 00:57:07;;;;;;;6.38;4.60;;;;;;;;;;5133401;27;20207;-72
2021/06/08 00:59:34;;;;;;;4.78;4.00;;;;;;;;;;5133179;27;20249;-72
2021/06/08 01:35:08;;;;;;;8.03;4.37;;;;;;;;;;5117361;27;20539;-72
2021/06/08 01:37:35;;;;;;;6.87;4.43;;;;;;;;;;5087801;28;20576;-73
2021/06/08 01:40:02;;;;;;;5.73;4.70;;;;;;;;;;5088924;28;20225;-73
2021/06/08 01:42:28;;;;;;;6.78;4.63;;;;;;;;;;5089527;28;20204;-73
2021/06/08 01:44:55;;;;;;;5.55;4.38;;;;;;;;;;5080573;28;20284;-73
2021/06/08 01:47:21;;;;;;;5.82;4.45;;;;;;;;;;5069716;28;20280;-75
2021/06/08 01:49:48;;;;;;;5.28;3.85;;;;;;;;;;5074104;28;20219;-73
2021/06/08 01:52:22;;;;;;;6.47;4.57;;;;;;;;;;5107976;28;20546;-73
2021/06/08 01:55:08;;;;;;;5.82;4.68;;;;;;;;;;5108474;28;20231;-73
2021/06/08 01:57:44;;;;;;;4.63;4.00;;;;;;;;;;5085431;28;20205;-73
2021/06/08 02:00:22;;;;;;;5.82;4.50;;;;;;;;;;5080739;28;20635;-74
2021/06/08 02:02:55;;;;;;;5.53;4.20;;;;;;;;;;5142293;27;20297;-73
2021/06/08 02:05:31;;;;;;;5.90;3.92;;;;;;;;;;5149375;27;20336;-73
2021/06/08 02:08:02;;;;;;;6.13;4.75;;;;;;;;;;5149799;27;20293;-73
2021/06/08 02:10:49;;;;;;;6.03;4.57;;;;;;;;;;5150075;27;20229;-73
2021/06/08 02:13:19;;;;;;;6.55;4.45;;;;;;;;;;5149665;27;20313;-73
2021/06/08 02:16:17;;;;;;;7.45;5.30;;;;;;;;;;5149100;27;20204;-73
2021/06/08 02:18:44;;;;;;;4.70;3.72;;;;;;;;;;5076576;27;20209;-73
2021/06/08 02:21:12;;;;;;;5.97;4.82;;;;;;;;;;5149883;27;20219;-73
2021/06/08 02:23:39;;;;;;;5.80;4.10;;;;;;;;;;5149977;27;20206;-73
2021/06/08 02:26:06;;;;;;;5.03;3.90;;;;;;;;;;5149046;27;20249;-73
2021/06/08 02:28:35;;;;;;;5.50;4.18;;;;;;;;;;5149609;27;20616;-73
2021/06/08 02:31:04;;;;;;;7.82;4.40;;;;;;;;;;5149736;27;20234;-73
2021/06/08 02:33:31;;;;;;;6.95;5.07;;;;;;;;;;5149501;27;20263;-73
2021/06/08 02:35:58;;;;;;;8.35;4.88;;;;;;;;;;5148704;27;20762;-73
2021/06/08 02:38:26;;;;;;;6.03;4.88;;;;;;;;;;5149546;27;20230;-73
2021/06/08 02:40:53;;;;;;;6.57;4.20;;;;;;;;;;5147240;27;20231;-73
2021/06/08 02:43:20;;;;;;;6.05;4.15;;;;;;;;;;5128526;28;20693;-73
2021/06/08 02:45:46;;;;;;;7.88;4.68;;;;;;;;;;5116815;28;20206;-73
2021/06/08 02:48:14;;;;;;;4.57;3.85;;;;;;;;;;5115082;28;20214;-73
2021/06/08 02:50:41;;;;;;;5.30;4.18;;;;;;;;;;5114738;28;20277;-73
2021/06/08 02:53:08;;;;;;;5.40;4.43;;;;;;;;;;5114645;28;20219;-73
2021/06/08 02:55:34;;;;;;;7.38;4.35;;;;;;;;;;5095771;28;20235;-73
2021/06/08 02:58:01;;;;;;;5.15;4.13;;;;;;;;;;5114979;28;20287;-73
2021/06/08 03:00:27;;;;;;;6.82;5.15;;;;;;;;;;5114695;28;20808;-73
2021/06/08 03:02:56;;;;;;;6.53;4.72;;;;;;;;;;5114694;28;20202;-73
2021/06/08 03:05:25;;;;;;;5.63;4.07;;;;;;;;;;5113944;28;20299;-73
2021/06/08 03:07:54;;;;;;;6.50;4.60;;;;;;;;;;5114764;28;20222;-73
2021/06/08 03:10:21;;;;;;;5.40;3.78;;;;;;;;;;5096420;28;20222;-73
2021/06/08 03:12:52;;;;;;;5.65;4.20;;;;;;;;;;5114802;28;20200;-73
2021/06/08 03:15:20;;;;;;;5.55;4.53;;;;;;;;;;5114251;28;20210;-73
2021/06/08 03:17:46;;;;;;;5.70;4.18;;;;;;;;;;5114391;28;20214;-73
2021/06/08 03:20:39;;;;;;;8.63;5.38;;;;;;;;;;5114197;28;20220;-73
2021/06/08 03:23:08;;;;;;;7.78;4.68;;;;;;;;;;5109309;28;20299;-73
2021/06/08 03:25:35;;;;;;;4.75;4.25;;;;;;;;;;5113572;28;20200;-73
2021/06/08 03:28:03;;;;;;;7.28;4.85;;;;;;;;;;5114105;28;20242;-72
2021/06/08 03:30:30;;;;;;;5.20;4.05;;;;;;;;;;5114005;28;20731;-73
2021/06/08 03:32:57;;;;;;;7.97;4.60;;;;;;;;;;5113759;28;20217;-73
2021/06/08 03:35:25;;;;;;;5.03;3.95;;;;;;;;;;5113228;28;20202;-72
2021/06/08 03:37:53;;;;;;;6.47;4.80;;;;;;;;;;5114111;28;20212;-72
2021/06/08 03:40:23;;;;;;;5.97;4.70;;;;;;;;;;5113958;28;20215;-72
2021/06/08 03:42:50;;;;;;;6.13;4.05;;;;;;;;;;5095524;28;20196;-72
2021/06/08 03:45:17;;;;;;;5.45;4.00;;;;;;;;;;5113111;28;20645;-71
2021/06/08 03:47:44;;;;;;;5.70;4.40;;;;;;;;;;5113665;28;20204;-73
2021/06/08 03:50:14;;;;;;;5.00;3.95;;;;;;;;;;5113871;28;20228;-73
2021/06/08 03:52:49;;;;;;;7.57;5.28;;;;;;;;;;5113769;28;20234;-73
2021/06/08 03:55:20;;;;;;;6.10;4.85;;;;;;;;;;5112972;28;20227;-73
2021/06/08 03:57:49;;;;;;;7.45;4.57;;;;;;;;;;5112451;28;20291;-73
2021/06/08 04:00:17;;;;;;;8.40;4.43;;;;;;;;;;5113354;28;20219;-73
2021/06/08 04:02:43;;;;;;;6.30;4.65;;;;;;;;;;5113524;28;20204;-73
2021/06/08 04:05:11;;;;;;;7.97;4.38;;;;;;;;;;5112644;28;20204;-72
2021/06/08 04:07:41;;;;;;;6.05;4.43;;;;;;;;;;5113169;28;20210;-74
2021/06/08 04:10:09;;;;;;;4.85;4.25;;;;;;;;;;5113202;28;20220;-71
2021/06/08 04:12:35;;;;;;;6.30;4.80;;;;;;;;;;5113134;28;20287;-73
2021/06/08 04:15:06;;;;;;;6.65;4.78;;;;;;;;;;5112080;28;20224;-73
2021/06/08 04:17:33;;;;;;;6.93;4.68;;;;;;;;;;5113177;28;20294;-72
2021/06/08 04:20:00;;;;;;;7.03;4.65;;;;;;;;;;5112917;28;20696;-72
2021/06/08 04:22:30;;;;;;;6.90;4.93;;;;;;;;;;5112974;28;20283;-73
2021/06/08 04:24:57;;;;;;;7.25;4.82;;;;;;;;;;5094002;28;20212;-73
2021/06/08 04:27:27;;;;;;;5.32;4.72;;;;;;;;;;5112760;28;20303;-73
2021/06/08 04:29:54;;;;;;;5.25;3.97;;;;;;;;;;5112595;28;20663;-72
2021/06/08 04:32:21;;;;;;;7.03;3.97;;;;;;;;;;5112862;28;20295;-73
2021/06/08 04:34:48;;;;;;;5.07;3.97;;;;;;;;;;5111742;28;20790;-73
2021/06/08 04:37:15;;;;;;;5.78;4.78;;;;;;;;;;5112666;28;20199;-72
2021/06/08 04:39:41;;;;;;;5.93;4.80;;;;;;;;;;5112518;28;20306;-72
2021/06/08 04:42:09;;;;;;;5.68;4.20;;;;;;;;;;5112393;28;20287;-73
2021/06/08 04:44:35;;;;;;;5.95;4.22;;;;;;;;;;5111897;28;20279;-73
2021/06/08 04:47:02;;;;;;;6.13;4.88;;;;;;;;;;5112649;28;20211;-73
2021/06/08 04:49:29;;;;;;;7.63;5.25;;;;;;;;;;5094384;28;20246;-73
2021/06/08 04:51:55;;;;;;;6.40;4.95;;;;;;;;;;5091773;27;20208;-73
2021/06/08 04:54:24;;;;;;;5.93;4.70;;;;;;;;;;5091180;27;20239;-72
2021/06/08 04:56:51;;;;;;;8.90;4.88;;;;;;;;;;5130656;27;20282;-72
2021/06/08 04:59:20;;;;;;;7.88;5.47;;;;;;;;;;5130779;27;20284;-73
2021/06/08 05:01:48;;;;;;;8.13;5.10;;;;;;;;;;5130469;27;20286;-73
2021/06/08 05:04:16;;;;;;;8.27;4.75;;;;;;;;;;5129585;27;20252;-73
2021/06/08 05:06:53;;;;;;;5.97;4.40;;;;;;;;;;5130042;27;20290;-73
2021/06/08 05:09:22;;;;;;;5.32;4.07;;;;;;;;;;5130170;27;20205;-73
2021/06/08 05:11:53;;;;;;;5.93;4.80;;;;;;;;;;5130648;27;20207;-73
2021/06/08 05:14:25;;;;;;;7.05;4.45;;;;;;;;;;5129572;27;20211;-72
2021/06/08 05:16:52;;;;;;;7.00;5.25;;;;;;;;;;5130175;27;20294;-72
2021/06/08 05:19:19;;;;;;;5.97;4.68;;;;;;;;;;5129500;27;20205;-73
2021/06/08 05:21:45;;;;;;;6.32;4.85;;;;;;;;;;5130516;27;20282;-73
2021/06/08 05:24:13;;;;;;;8.25;4.70;;;;;;;;;;5129846;27;20206;-73
2021/06/08 05:26:44;;;;;;;7.78;5.15;;;;;;;;;;5109817;27;20215;-73
2021/06/08 05:29:10;;;;;;;7.30;5.35;;;;;;;;;;5129943;27;20747;-73
2021/06/08 05:31:37;;;;;;;6.88;4.70;;;;;;;;;;5129833;28;20203;-73
2021/06/08 05:34:04;;;;;;;6.28;4.55;;;;;;;;;;5130001;28;20263;-73
2021/06/08 05:36:34;;;;;;;6.15;4.93;;;;;;;;;;5122419;28;20283;-73
2021/06/08 05:39:01;;;;;;;7.47;5.65;;;;;;;;;;5111826;28;20257;-73
2021/06/08 05:41:28;;;;;;;6.07;4.65;;;;;;;;;;5116477;28;20345;-73
2021/06/08 05:43:54;;;;;;;5.63;4.28;;;;;;;;;;5128895;28;20278;-73
2021/06/08 05:46:20;;;;;;;6.05;4.72;;;;;;;;;;5109025;28;20199;-73
2021/06/08 05:48:48;;;;;;;7.35;4.85;;;;;;;;;;5109814;28;20207;-73
2021/06/08 05:51:14;;;;;;;7.57;4.88;;;;;;;;;;5109371;28;20582;-73
2021/06/08 05:53:45;;;;;;;5.88;4.70;;;;;;;;;;5094036;28;20214;-73
2021/06/08 05:56:12;;;;;;;5.50;4.43;;;;;;;;;;5129859;28;20299;-73
2021/06/08 05:58:39;;;;;;;6.80;4.78;;;;;;;;;;5130492;28;20729;-73
2021/06/08 06:01:08;;;;;;;7.38;4.85;;;;;;;;;;5130189;28;20344;-73
2021/06/08 06:03:34;;;;;;;5.28;4.53;;;;;;;;;;5130303;28;20291;-73
2021/06/08 06:06:02;;;;;;;5.78;4.80;;;;;;;;;;5111283;28;20242;-73
2021/06/08 06:08:29;;;;;;;6.47;4.70;;;;;;;;;;5129340;27;20195;-73
2021/06/08 06:10:57;;;;;;;7.07;5.00;;;;;;;;;;5129954;27;20323;-73
2021/06/08 06:13:26;;;;;;;7.53;5.43;;;;;;;;;;5129898;28;20286;-72
2021/06/08 06:15:54;;;;;;;6.80;4.75;;;;;;;;;;5129336;28;20656;-73
2021/06/08 06:18:20;;;;;;;5.95;4.28;;;;;;;;;;5130173;28;20290;-73
2021/06/08 06:20:49;;;;;;;8.07;4.38;;;;;;;;;;5132395;27;20702;-73
2021/06/08 06:23:16;;;;;;;7.72;4.53;;;;;;;;;;5134076;27;20289;-73
2021/06/08 06:25:43;;;;;;;4.93;4.15;;;;;;;;;;5133352;27;20226;-72
2021/06/08 06:28:13;;;;;;;5.28;4.35;;;;;;;;;;5133754;27;20231;-72
2021/06/08 06:30:40;;;;;;;6.80;4.68;;;;;;;;;;5134247;27;20269;-72
2021/06/08 06:33:06;;;;;;;6.53;4.88;;;;;;;;;;5133916;27;20302;-73
2021/06/08 06:35:33;;;;;;;6.93;4.65;;;;;;;;;;5114771;27;20283;-72
2021/06/08 06:38:01;;;;;;;6.80;3.90;;;;;;;;;;5117238;27;20211;-73
2021/06/08 06:40:29;;;;;;;6.45;4.60;;;;;;;;;;5118562;27;20223;-74
2021/06/08 06:43:02;;;;;;;7.25;5.03;;;;;;;;;;5111848;28;20328;-73
2021/06/08 06:45:29;;;;;;;6.85;4.10;;;;;;;;;;5112091;28;20311;-74
2021/06/08 06:48:02;;;;;;;6.22;4.72;;;;;;;;;;5112911;28;20206;-74
2021/06/08 06:50:30;;;;;;;6.00;4.22;;;;;;;;;;5112660;28;20326;-74
2021/06/08 06:52:57;;;;;;;8.20;4.38;;;;;;;;;;5112584;28;20196;-74
2021/06/08 06:55:25;;;;;;;4.88;4.28;;;;;;;;;;5112066;28;20374;-73
2021/06/08 06:57:52;;;;;;;5.63;4.30;;;;;;;;;;5115004;27;20211;-74
2021/06/08 07:00:19;;;;;;;6.50;4.65;;;;;;;;;;5133044;27;20219;-74
2021/06/08 07:02:46;;;;;;;6.88;5.05;;;;;;;;;;5132643;27;20542;-74
2021/06/08 07:05:14;;;;;;;5.05;3.80;;;;;;;;;;5132458;27;20868;-73
2021/06/08 07:07:42;;;;;;;6.93;4.25;;;;;;;;;;5132913;27;20701;-73
2021/06/08 07:10:09;;;;;;;4.68;3.95;;;;;;;;;;5114809;27;21189;-73
2021/06/08 07:12:38;;;;;;;5.55;4.15;;;;;;;;;;5133045;27;20739;-74
2021/06/08 07:15:05;;;;;;;6.10;4.38;;;;;;;;;;5132324;27;20206;-73
2021/06/08 07:17:32;;;;;;;9.90;3.97;;;;;;;;;;5128369;27;20222;-74
2021/06/08 07:20:00;;;;;;;4.50;3.85;;;;;;;;;;5112068;28;20876;-74
2021/06/08 07:22:27;;;;;;;11.20;4.82;;;;;;;;;;5111717;28;20254;-74
2021/06/08 07:24:53;;;;;;;5.28;3.75;;;;;;;;;;5111535;28;20306;-74
2021/06/08 07:27:20;;;;;;;4.22;3.38;;;;;;;;;;5112882;28;20196;-75
2021/06/08 07:29:47;;;;;;;5.00;3.83;;;;;;;;;;5112744;28;20722;-74
2021/06/08 07:32:16;;;;;;;3.88;3.38;;;;;;;;;;5111864;28;20714;-75
2021/06/08 07:35:09;;;;;;;3.95;3.35;;;;;;;;;;5110848;28;20239;-75
2021/06/08 07:37:39;;;;;;;3.95;2.97;;;;;;;;;;5107595;27;20208;-75
2021/06/08 07:40:06;;;;;;;4.03;3.33;;;;;;;;;;5108905;28;20226;-73
2021/06/08 07:42:41;;;;;;;2.95;2.53;;;;;;;;;;5110785;28;20210;-73
2021/06/08 07:45:08;;;;;;;3.67;3.17;;;;;;;;;;5109286;28;20224;-74
2021/06/08 07:47:36;;;;;;;3.22;2.90;;;;;;;;;;5111264;28;20287;-73
2021/06/08 07:50:04;;;;;;;3.05;2.63;;;;;;;;;;5093301;28;20231;-75
2021/06/08 07:52:31;;;;;;;4.25;3.53;;;;;;;;;;5111278;28;20211;-75
2021/06/08 07:54:57;;;;;;;3.08;2.70;;;;;;;;;;5110429;28;20203;-75
2021/06/08 07:57:24;;;;;;;6.10;2.80;;;;;;;;;;5112026;27;20235;-74
2021/06/08 08:00:07;;;;;;;2.78;2.58;;;;;;;;;;5113472;27;20242;-74
2021/06/08 08:02:34;;;;;;;3.30;3.00;;;;;;;;;;5111440;28;20392;-74
2021/06/08 08:05:08;;;;;;;3.25;2.42;;;;;;;;;;5110638;28;20223;-74
2021/06/08 08:07:34;;;;;;;2.97;2.47;;;;;;;;;;5111223;28;20281;-75
2021/06/08 08:10:01;;;;;;;2.97;2.78;;;;;;;;;;5111142;28;20254;-74
2021/06/08 08:12:33;;;;;;;3.38;2.40;;;;;;;;;;5109610;28;20278;-75
2021/06/08 08:15:00;;;;;;;2.75;2.45;;;;;;;;;;5110272;28;20299;-74
2021/06/08 08:17:27;;;;;;;4.47;3.00;;;;;;;;;;5118231;27;20213;-74
2021/06/08 08:19:54;;;;;;;2.38;2.08;;;;;;;;;;5131061;27;20218;-74
2021/06/08 08:22:20;;;;;;;4.22;2.55;;;;;;;;;;5112753;27;20330;-74
2021/06/08 08:24:47;;;;;;;2.50;2.30;;;;;;;;;;5129987;27;20598;-74
2021/06/08 08:27:14;;;;;;;2.10;1.90;;;;;;;;;;5130119;27;20199;-72
2021/06/08 08:29:41;;;;;;;2.42;2.22;;;;;;;;;;5131237;27;20718;-75
2021/06/08 08:32:08;;;;;;;2.53;2.30;;;;;;;;;;5112644;27;20221;-74
2021/06/08 08:34:34;;;;;;;2.38;2.17;;;;;;;;;;5111865;27;20275;-74
2021/06/08 08:37:02;;;;;;;3.25;2.40;;;;;;;;;;5130845;27;20208;-74
2021/06/08 08:39:29;;;;;;;2.85;2.58;;;;;;;;;;5129835;27;20261;-74
2021/06/08 08:41:56;;;;;;;2.92;2.45;;;;;;;;;;5119486;27;20548;-74
2021/06/08 08:44:23;;;;;;;2.55;2.28;;;;;;;;;;5090728;28;20199;-74
2021/06/08 08:46:49;;;;;;;3.17;2.40;;;;;;;;;;5110257;28;20204;-73
2021/06/08 08:49:16;;;;;;;2.60;2.20;;;;;;;;;;5109744;28;20852;-74
2021/06/08 08:51:43;;;;;;;3.65;2.08;;;;;;;;;;5109884;28;20196;-73
2021/06/08 08:54:11;;;;;;;2.60;2.40;;;;;;;;;;5110295;28;20203;-73
2021/06/08 08:56:39;;;;;;;2.83;2.40;;;;;;;;;;5109538;28;20199;-74
2021/06/08 08:59:09;;;;;;;2.38;1.90;;;;;;;;;;5110579;28;20620;-74
2021/06/08 09:01:36;;;;;;;3.33;1.95;;;;;;;;;;5110002;28;20365;-74
2021/06/08 09:04:04;;;;;;;2.72;2.40;;;;;;;;;;5109731;28;20700;-74
2021/06/08 09:06:31;;;;;;;3.38;1.55;;;;;;;;;;5109222;28;20282;-72
2021/06/08 09:08:57;;;;;;;2.00;1.80;;;;;;;;;;5092600;28;20199;-74
2021/06/08 09:11:25;;;;;;;2.70;1.75;;;;;;;;;;5110886;28;20223;-72
2021/06/08 09:13:51;;;;;;;2.45;1.92;;;;;;;;;;5109226;28;20202;-73
2021/06/08 09:16:18;;;;;;;2.20;1.98;;;;;;;;;;5089487;28;20222;-74
2021/06/08 09:18:45;;;;;;;2.10;1.90;;;;;;;;;;5113700;27;20585;-74
2021/06/08 09:21:14;;;;;;;1.85;1.40;;;;;;;;;;5129764;27;20317;-74
2021/06/08 09:23:40;;;;;;;3.35;2.00;;;;;;;;;;5130028;27;20202;-74
2021/06/08 09:26:07;;;;;;;1.60;1.50;;;;;;;;;;5117170;27;20219;-74
2021/06/08 09:28:39;;;;;;;1.60;1.50;;;;;;;;;;5121139;27;20202;-75
2021/06/08 09:31:23;;;;;;;2.22;1.63;;;;;;;;;;5109115;28;20285;-70
2021/06/08 09:33:51;;;;;;;3.10;1.40;;;;;;;;;;5091235;28;20202;-70
2021/06/08 09:36:21;;;;;;;2.85;2.00;;;;;;;;;;5110925;28;20206;-70
2021/06/08 09:38:48;;;;;;;1.92;1.70;;;;;;;;;;5116642;28;20195;-70
2021/06/08 09:41:14;;;;;;;1.90;1.70;;;;;;;;;;5104618;28;20291;-69
2021/06/08 09:43:59;;;;;;;2.45;2.00;;;;;;;;;;5087781;28;20311;-68
2021/06/08 09:46:27;;;;;;;1.60;1.50;;;;;;;;;;5086740;28;20734;-69
2021/06/08 09:49:02;;;;;;;1.55;1.45;;;;;;;;;;5088316;28;20873;-69
2021/06/08 09:51:46;;;;;;;1.73;1.63;;;;;;;;;;5105438;28;20214;-69
2021/06/08 09:54:31;;;;;;;1.60;1.50;;;;;;;;;;5107483;28;20209;-69
2021/06/08 09:57:14;;;;;;;1.88;1.67;;;;;;;;;;5134064;27;20206;-70
2021/06/08 09:59:41;;;;;;;1.63;1.50;;;;;;;;;;5133417;27;20795;-68
2021/06/08 10:02:26;;;;;;;2.17;1.90;;;;;;;;;;5133735;27;20289;-69
2021/06/08 10:04:53;;;;;;;1.73;1.60;;;;;;;;;;5132613;27;20216;-69
2021/06/08 10:07:29;;;;;;;1.60;1.30;;;;;;;;;;5133932;27;20285;-70
2021/06/08 10:10:04;;;;;;;1.70;1.60;;;;;;;;;;5133572;27;20710;-70
2021/06/08 10:12:30;;;;;;;2.00;1.25;;;;;;;;;;5133398;27;20563;-70
2021/06/08 10:15:07;;;;;;;2.17;1.88;;;;;;;;;;5114346;27;20210;-69
2021/06/08 10:17:34;;;;;;;4.80;1.65;;;;;;;;;;5133193;27;20202;-70
2021/06/08 10:20:15;;;;;;;3.00;1.63;;;;;;;;;;5124372;27;20637;-70
2021/06/08 10:22:42;;;;;;;3.20;1.90;;;;;;;;;;5112650;28;20231;-70
2021/06/08 10:25:09;;;;;;;2.40;1.90;;;;;;;;;;5113212;27;20227;-70
2021/06/08 10:27:35;;;;;;;2.20;2.00;;;;;;;;;;5132546;27;20590;-70
2021/06/08 10:30:02;;;;;;;1.75;1.65;;;;;;;;;;5129579;27;20707;-70
2021/06/08 10:32:29;;;;;;;1.75;1.50;;;;;;;;;;5112212;28;20290;-69
2021/06/08 10:34:56;;;;;;;1.95;1.80;;;;;;;;;;5112255;28;20253;-69
2021/06/08 10:37:23;;;;;;;2.85;2.10;;;;;;;;;;5112103;28;20203;-69
2021/06/08 10:39:49;;;;;;;2.63;2.03;;;;;;;;;;5112611;28;20259;-69
2021/06/08 10:42:16;;;;;;;2.97;2.42;;;;;;;;;;5112905;28;20283;-68
2021/06/08 10:44:43;;;;;;;2.13;1.80;;;;;;;;;;5094821;28;20192;-71
2021/06/08 10:47:31;;;;;;;2.25;1.70;;;;;;;;;;5113129;28;20215;-69
2021/06/08 10:49:58;;;;;;;2.35;1.70;;;;;;;;;;5112581;28;20208;-69
2021/06/08 10:52:26;;;;;;;2.08;1.92;;;;;;;;;;5113375;28;20292;-71
2021/06/08 10:54:54;;;;;;;2.30;1.92;;;;;;;;;;5112662;28;20656;-70
2021/06/08 10:57:20;;;;;;;2.65;2.28;;;;;;;;;;5113382;28;20630;-71
2021/06/08 10:59:48;;;;;;;2.35;1.90;;;;;;;;;;5113415;28;20634;-71
2021/06/08 11:02:33;;;;;;;3.83;2.10;;;;;;;;;;5113417;28;20610;-71
2021/06/08 11:05:00;;;;;;;2.47;2.28;;;;;;;;;;5112627;28;20625;-70
2021/06/08 11:07:49;;;;;;;2.00;1.80;;;;;;;;;;5112400;28;20283;-70
2021/06/08 11:10:25;;;;;;;2.53;2.15;;;;;;;;;;5112658;28;20254;-71
2021/06/08 11:13:07;;;;;;;3.65;1.98;;;;;;;;;;5094152;28;20286;-70
2021/06/08 11:15:51;;;;;;;1.85;1.70;;;;;;;;;;5112130;28;20282;-69
2021/06/08 11:18:18;;;;;;;1.88;1.77;;;;;;;;;;5113029;28;20576;-69
2021/06/08 11:20:48;;;;;;;4.18;1.52;;;;;;;;;;5112618;28;20310;-70
2021/06/08 11:23:43;;;;;;;2.45;1.88;;;;;;;;;;5095280;28;20283;-70
2021/06/08 11:26:11;;;;;;;2.92;2.00;;;;;;;;;;5095251;28;20219;-69
2021/06/08 11:28:44;;;;;;;1.92;1.77;;;;;;;;;;5113084;28;20290;-69
2021/06/08 11:31:11;;;;;;;1.98;1.77;;;;;;;;;;5112449;28;20302;-69
2021/06/08 11:33:42;;;;;;;2.42;1.98;;;;;;;;;;5112341;28;20250;-69
2021/06/08 11:36:17;;;;;;;2.42;1.98;;;;;;;;;;5111766;28;20660;-69
2021/06/08 11:38:45;;;;;;;1.52;1.42;;;;;;;;;;5112434;28;20238;-70
2021/06/08 11:41:12;;;;;;;2.05;1.70;;;;;;;;;;5112062;28;20617;-70
2021/06/08 11:43:38;;;;;;;2.53;1.90;;;;;;;;;;5112224;28;20211;-69
2021/06/08 11:46:04;;;;;;;3.25;2.30;;;;;;;;;;5111071;28;20225;-69
2021/06/08 11:48:31;;;;;;;2.00;1.80;;;;;;;;;;5111399;28;20735;-69
2021/06/08 11:50:58;;;;;;;2.08;1.80;;;;;;;;;;5111583;28;20298;-70
2021/06/08 11:53:25;;;;;;;2.38;1.90;;;;;;;;;;5110957;28;20295;-69
2021/06/08 11:56:04;;;;;;;2.03;1.80;;;;;;;;;;5111457;28;20230;-69
2021/06/08 11:58:31;;;;;;;2.33;1.98;;;;;;;;;;5111334;28;20204;-69
2021/06/08 12:00:58;;;;;;;2.22;2.03;;;;;;;;;;5111991;28;20289;-69
2021/06/08 12:03:28;;;;;;;3.92;2.70;;;;;;;;;;5112293;28;20260;-70
2021/06/08 12:05:55;;;;;;;3.15;2.67;;;;;;;;;;5111078;28;20334;-68
2021/06/08 12:08:32;;;;;;;3.15;2.85;;;;;;;;;;5111882;28;20284;-68
2021/06/08 12:10:59;;;;;;;2.70;2.47;;;;;;;;;;5111463;28;20276;-69
2021/06/08 12:13:33;;;;;;;3.08;2.78;;;;;;;;;;5108968;27;20286;-69
2021/06/08 12:15:59;;;;;;;3.03;2.50;;;;;;;;;;5110080;27;20204;-69
2021/06/08 12:18:35;;;;;;;3.17;2.67;;;;;;;;;;5109785;27;20672;-69
2021/06/08 12:21:10;;;;;;;2.65;2.03;;;;;;;;;;5109516;28;20231;-69
2021/06/08 12:23:37;;;;;;;2.40;2.10;;;;;;;;;;5115631;27;20290;-69
2021/06/08 12:26:06;;;;;;;2.60;2.05;;;;;;;;;;5128409;27;20390;-70
2021/06/08 12:28:33;;;;;;;2.60;1.92;;;;;;;;;;5109304;28;20196;-69
2021/06/08 12:31:12;;;;;;;2.40;2.03;;;;;;;;;;5127305;27;20306;-70
2021/06/08 12:33:40;;;;;;;3.22;2.40;;;;;;;;;;5119931;27;20284;-70
2021/06/08 12:36:06;;;;;;;3.10;2.50;;;;;;;;;;5109158;28;20211;-70
2021/06/08 12:38:33;;;;;;;3.42;2.70;;;;;;;;;;5109931;28;20290;-71
2021/06/08 12:41:10;;;;;;;4.68;2.53;;;;;;;;;;5108698;27;20224;-69
2021/06/08 12:43:43;;;;;;;3.28;2.80;;;;;;;;;;5099385;28;20203;-68
2021/06/08 12:46:10;;;;;;;4.85;2.60;;;;;;;;;;5109934;27;20222;-70
2021/06/08 12:48:36;;;;;;;4.50;2.80;;;;;;;;;;5112495;27;20759;-71
2021/06/08 12:51:12;;;;;;;5.20;3.00;;;;;;;;;;5130760;27;20273;-71
2021/06/08 12:53:39;;;;;;;3.88;2.75;;;;;;;;;;5119183;27;20650;-70
2021/06/08 12:56:11;;;;;;;4.60;2.70;;;;;;;;;;5109854;28;20240;-71
2021/06/08 12:58:37;;;;;;;3.60;2.50;;;;;;;;;;5109915;28;20278;-70
2021/06/08 13:01:08;;;;;;;3.45;2.42;;;;;;;;;;5121793;27;20310;-71
2021/06/08 13:03:35;;;;;;;4.45;2.33;;;;;;;;;;5130595;27;20203;-69
2021/06/08 13:06:02;;;;;;;2.42;2.10;;;;;;;;;;5129223;27;20223;-69
2021/06/08 13:08:31;;;;;;;1.92;1.65;;;;;;;;;;5125648;27;20544;-69
2021/06/08 13:10:58;;;;;;;1.75;1.63;;;;;;;;;;5109338;28;20588;-69
2021/06/08 13:13:30;;;;;;;2.25;1.60;;;;;;;;;;5103827;28;20205;-69
2021/06/08 13:15:57;;;;;;;1.67;1.48;;;;;;;;;;5088433;28;20681;-69
2021/06/08 13:18:24;;;;;;;1.98;1.45;;;;;;;;;;5088888;28;20215;-69
2021/06/08 13:20:53;;;;;;;1.40;1.30;;;;;;;;;;5088541;28;20259;-69
2021/06/08 13:23:26;;;;;;;1.40;1.30;;;;;;;;;;5089210;28;20315;-69
2021/06/08 13:25:54;;;;;;;1.75;1.20;;;;;;;;;;5088576;28;20587;-69
2021/06/08 13:28:30;;;;;;;4.72;1.75;;;;;;;;;;5088698;28;20291;-69
2021/06/08 13:31:02;;;;;;;2.30;1.73;;;;;;;;;;5088112;28;20764;-68
2021/06/08 13:33:29;;;;;;;2.08;1.40;;;;;;;;;;5090554;28;20295;-70
2021/06/08 13:35:55;;;;;;;2.28;1.73;;;;;;;;;;5107839;28;20968;-71
2021/06/08 13:38:22;;;;;;;2.25;1.42;;;;;;;;;;5108631;28;20227;-71
2021/06/08 13:40:50;;;;;;;1.88;1.67;;;;;;;;;;5107985;28;20311;-69
2021/06/08 13:43:17;;;;;;;1.73;1.60;;;;;;;;;;5109170;28;20204;-69
2021/06/08 13:45:54;;;;;;;2.72;1.63;;;;;;;;;;5089615;28;20200;-70
2021/06/08 13:48:29;;;;;;;1.95;1.52;;;;;;;;;;5108097;28;20206;-70
2021/06/08 13:51:14;;;;;;;1.30;1.17;;;;;;;;;;5108625;28;20225;-69
2021/06/08 13:53:45;;;;;;;2.03;1.50;;;;;;;;;;5125379;28;20211;-69
2021/06/08 13:56:22;;;;;;;1.90;1.15;;;;;;;;;;5122744;27;20572;-69
2021/06/08 14:01:48;;;;;;;2.65;1.45;;;;;;;;;;5128547;28;20302;-69
2021/06/08 14:04:15;;;;;;;1.45;1.30;;;;;;;;;;5129156;28;20301;-69
2021/06/08 14:06:55;;;;;;;3.33;1.80;;;;;;;;;;5128590;28;20219;-71
2021/06/08 14:09:23;;;;;;;2.00;1.80;;;;;;;;;;5108750;28;20641;-71
2021/06/08 14:11:53;;;;;;;2.65;2.05;;;;;;;;;;5089807;28;20238;-71
2021/06/08 14:14:27;;;;;;;2.58;1.67;;;;;;;;;;5088410;28;20291;-71
2021/06/08 14:16:55;;;;;;;3.13;2.05;;;;;;;;;;5088038;28;20630;-71
2021/06/08 14:19:21;;;;;;;2.05;1.80;;;;;;;;;;5100058;28;20245;-71
2021/06/08 14:21:50;;;;;;;2.25;1.65;;;;;;;;;;5092985;28;20611;-71
2021/06/08 14:24:17;;;;;;;2.60;1.92;;;;;;;;;;5098135;28;20549;-70
2021/06/08 14:26:43;;;;;;;2.72;2.08;;;;;;;;;;5089455;28;20222;-71
2021/06/08 14:29:10;;;;;;;2.70;2.20;;;;;;;;;;5091666;28;20232;-70
2021/06/08 14:31:36;;;;;;;3.83;2.25;;;;;;;;;;5108068;28;20206;-72
2021/06/08 14:34:03;;;;;;;1.70;1.60;;;;;;;;;;5093791;28;20258;-72
2021/06/08 14:36:30;;;;;;;2.25;2.05;;;;;;;;;;5086664;28;20208;-72
2021/06/08 14:38:59;;;;;;;2.63;2.30;;;;;;;;;;5107255;28;20295;-71
2021/06/08 14:41:26;;;;;;;3.00;2.35;;;;;;;;;;5122690;27;20230;-73
2021/06/08 14:43:53;;;;;;;6.50;2.63;;;;;;;;;;5111147;28;20287;-72
2021/06/08 14:46:19;;;;;;;2.20;2.00;;;;;;;;;;5090229;28;20785;-71
2021/06/08 14:48:46;;;;;;;2.70;2.10;;;;;;;;;;5090858;28;20636;-72
2021/06/08 14:51:12;;;;;;;2.90;2.60;;;;;;;;;;5105168;28;20245;-72
2021/06/08 14:53:39;;;;;;;3.25;2.58;;;;;;;;;;5110759;28;20196;-72
2021/06/08 14:56:05;;;;;;;3.30;2.50;;;;;;;;;;5092216;28;20207;-72
2021/06/08 14:58:32;;;;;;;3.30;2.50;;;;;;;;;;5091987;28;20340;-73
2021/06/08 15:00:58;;;;;;;4.53;1.98;;;;;;;;;;5110779;28;20625;-72
2021/06/08 15:03:25;;;;;;;3.08;2.58;;;;;;;;;;5111039;28;20235;-71
2021/06/08 15:05:51;;;;;;;2.45;2.22;;;;;;;;;;5091550;28;20235;-72
2021/06/08 15:08:18;;;;;;;5.13;3.80;;;;;;;;;;5110191;28;20362;-71
2021/06/08 15:10:44;;;;;;;3.05;2.63;;;;;;;;;;5110343;28;20228;-71
2021/06/08 15:13:11;;;;;;;3.00;2.20;;;;;;;;;;5110079;28;20306;-71
2021/06/08 15:15:38;;;;;;;3.55;2.45;;;;;;;;;;5109110;28;20290;-71
2021/06/08 15:18:05;;;;;;;2.28;1.90;;;;;;;;;;5091702;28;20217;-71
2021/06/08 15:20:31;;;;;;;2.85;2.10;;;;;;;;;;5110453;28;20761;-72
2021/06/08 15:22:58;;;;;;;1.95;1.73;;;;;;;;;;5109860;28;20347;-71
2021/06/08 15:25:25;;;;;;;2.40;2.03;;;;;;;;;;5109606;28;20663;-71
2021/06/08 15:27:51;;;;;;;2.13;1.90;;;;;;;;;;5109684;28;20647;-71
2021/06/08 15:30:18;;;;;;;1.77;1.63;;;;;;;;;;5109695;28;20310;-71